createdAt,value
2018-05-14T00:02:17.464Z,54.96
2018-05-14T00:04:46.105Z,54.38
2018-05-14T00:07:14.684Z,55.51
2018-05-14T00:09:43.312Z,55.56
2018-05-14T00:12:11.899Z,55.90
2018-05-14T00:14:40.522Z,55.74
2018-05-14T00:17:09.113Z,55.83
2018-05-14T00:19:37.728Z,56.03
2018-05-14T00:22:06.314Z,56.46
2018-05-14T00:24:34.940Z,56.70
2018-05-14T00:27:03.528Z,56.62
2018-05-14T00:29:32.146Z,56.05
2018-05-14T00:32:00.738Z,57.22
2018-05-14T00:34:29.363Z,57.48
2018-05-14T00:36:57.952Z,57.26
2018-05-14T00:39:26.584Z,57.64
2018-05-14T00:41:55.165Z,58.82
2018-05-14T00:44:23.785Z,57.99
2018-05-14T00:46:52.368Z,58.08
2018-05-14T00:49:21.481Z,58.49
2018-05-14T00:51:50.714Z,58.55
2018-05-14T00:54:20.012Z,59.07
2018-05-14T00:56:48.934Z,59.56
2018-05-14T00:59:20.217Z,59.79
2018-05-14T01:01:48.991Z,59.59
2018-05-14T01:04:17.878Z,59.86
2018-05-14T01:06:46.815Z,58.43
2018-05-14T01:09:16.004Z,59.86
2018-05-14T01:11:44.876Z,60.40
2018-05-14T01:14:17.045Z,60.36
2018-05-14T01:16:46.089Z,58.97
2018-05-14T01:19:15.266Z,60.51
2018-05-14T01:21:43.738Z,59.12
2018-05-14T01:24:12.324Z,60.46
2018-05-14T01:26:40.941Z,60.35
2018-05-14T01:29:09.529Z,60.56
2018-05-14T01:31:38.146Z,60.44
2018-05-14T01:34:06.739Z,60.38
2018-05-14T01:36:35.368Z,60.46
2018-05-14T01:39:06.483Z,59.07
2018-05-14T01:41:35.097Z,60.32
2018-05-14T01:44:03.681Z,60.81
2018-05-14T01:46:33.149Z,60.49
2018-05-14T01:49:01.728Z,61.07
2018-05-14T01:51:32.126Z,61.21
2018-05-14T01:54:00.714Z,62.18
2018-05-14T01:56:29.329Z,62.42
2018-05-14T01:58:57.908Z,62.53
2018-05-14T02:01:26.980Z,62.79
2018-05-14T02:03:56.339Z,61.63
2018-05-14T02:06:25.964Z,62.69
2018-05-14T02:08:54.686Z,62.90
2018-05-14T02:11:24.401Z,63.43
2018-05-14T02:13:53.183Z,63.91
2018-05-14T02:16:22.168Z,63.56
2018-05-14T02:18:51.574Z,64.12
2018-05-14T02:21:20.352Z,63.95
2018-05-14T02:23:49.469Z,63.93
2018-05-14T02:26:18.633Z,64.01
2018-05-14T02:28:47.739Z,63.69
2018-05-14T02:31:16.261Z,63.96
2018-05-14T02:33:44.849Z,64.12
2018-05-14T02:36:13.448Z,62.34
2018-05-14T02:38:42.064Z,64.12
2018-05-14T02:41:10.657Z,64.94
2018-05-14T02:43:39.274Z,64.68
2018-05-14T02:46:07.935Z,64.64
2018-05-14T02:48:36.733Z,64.59
2018-05-14T02:51:06.093Z,65.17
2018-05-14T02:53:35.056Z,65.12
2018-05-14T02:56:03.616Z,65.22
2018-05-14T02:58:32.237Z,65.22
2018-05-14T03:01:00.827Z,65.69
2018-05-14T03:03:29.449Z,65.88
2018-05-14T03:05:58.041Z,64.18
2018-05-14T03:08:26.670Z,65.41
2018-05-14T03:10:55.258Z,64.93
2018-05-14T03:13:23.883Z,64.61
2018-05-14T03:15:52.472Z,64.83
2018-05-14T03:18:21.094Z,64.50
2018-05-14T03:20:51.975Z,64.03
2018-05-14T03:23:20.602Z,62.69
2018-05-14T03:25:49.184Z,64.26
2018-05-14T03:28:17.809Z,65.12
2018-05-14T03:30:49.782Z,65.61
2018-05-14T03:33:18.403Z,65.32
2018-05-14T03:35:46.997Z,65.59
2018-05-14T03:38:15.629Z,65.57
2018-05-14T03:40:44.480Z,65.25
2018-05-14T03:43:15.505Z,65.00
2018-05-14T03:45:45.405Z,65.28
2018-05-14T03:48:14.306Z,65.33
2018-05-14T03:50:43.836Z,65.27
2018-05-14T03:53:12.482Z,65.61
2018-05-14T03:55:43.750Z,65.84
2018-05-14T03:58:49.434Z,65.71
2018-05-14T04:01:20.117Z,65.51
2018-05-14T04:04:27.104Z,63.83
2018-05-14T04:06:55.634Z,65.19
2018-05-14T04:09:24.268Z,63.29
2018-05-14T04:11:52.862Z,64.81
2018-05-14T04:14:21.490Z,65.15
2018-05-14T04:16:50.081Z,65.45
2018-05-14T04:19:19.655Z,65.48
2018-05-14T04:21:48.250Z,65.15
2018-05-14T04:24:16.966Z,65.08
2018-05-14T04:26:47.513Z,65.02
2018-05-14T04:29:17.460Z,65.26
2018-05-14T04:31:46.065Z,64.99
2018-05-14T04:34:14.685Z,64.79
2018-05-14T04:36:44.359Z,64.58
2018-05-14T04:39:12.982Z,64.79
2018-05-14T04:41:41.584Z,64.29
2018-05-14T04:44:10.204Z,64.98
2018-05-14T04:46:38.804Z,64.50
2018-05-14T04:49:07.442Z,64.45
2018-05-14T04:51:36.038Z,64.92
2018-05-14T04:54:04.633Z,64.83
2018-05-14T04:56:33.261Z,64.75
2018-05-14T04:59:01.864Z,65.46
2018-05-14T05:01:30.478Z,64.43
2018-05-14T05:03:59.396Z,64.72
2018-05-14T05:06:28.021Z,64.61
2018-05-14T05:08:57.587Z,64.08
2018-05-14T05:11:26.305Z,64.06
2018-05-14T05:13:55.675Z,63.10
2018-05-14T05:16:24.298Z,62.22
2018-05-14T05:18:52.903Z,60.19
2018-05-14T05:21:21.534Z,60.75
2018-05-14T05:23:53.799Z,60.32
2018-05-14T05:26:23.793Z,60.47
2018-05-14T05:28:54.958Z,57.89
2018-05-14T05:31:23.577Z,58.93
2018-05-14T05:33:52.173Z,56.30
2018-05-14T05:36:22.065Z,57.46
2018-05-14T05:38:51.008Z,55.69
2018-05-14T05:41:19.637Z,56.88
2018-05-14T05:43:48.490Z,56.64
2018-05-14T05:46:17.105Z,56.86
2018-05-14T05:48:47.286Z,56.96
2018-05-14T05:51:16.244Z,56.52
2018-05-14T05:53:45.072Z,56.73
2018-05-14T05:56:14.257Z,56.72
2018-05-14T05:58:43.120Z,56.63
2018-05-14T06:01:12.022Z,56.60
2018-05-14T06:03:42.079Z,55.75
2018-05-14T06:06:11.049Z,53.11
2018-05-14T06:08:39.865Z,54.50
2018-05-14T06:11:10.576Z,54.83
2018-05-14T06:13:39.166Z,51.87
2018-05-14T06:16:08.144Z,53.43
2018-05-14T06:18:37.316Z,53.49
2018-05-14T06:21:07.566Z,53.48
2018-05-14T06:23:36.448Z,53.39
2018-05-14T06:26:05.473Z,53.19
2018-05-14T06:28:35.585Z,52.71
2018-05-14T06:31:05.883Z,51.57
2018-05-14T06:33:34.735Z,51.32
2018-05-14T06:36:05.085Z,50.86
2018-05-14T06:38:34.220Z,50.81
2018-05-14T06:41:19.204Z,46.81
2018-05-14T06:43:44.587Z,49.25
2018-05-14T06:46:13.787Z,48.82
2018-05-14T06:48:42.362Z,47.61
2018-05-14T06:51:10.963Z,47.84
2018-05-14T06:53:39.565Z,47.65
2018-05-14T06:56:08.744Z,47.54
2018-05-14T06:58:39.150Z,47.68
2018-05-14T07:01:07.748Z,46.66
2018-05-14T07:03:36.377Z,46.91
2018-05-14T07:06:04.960Z,46.30
2018-05-14T07:08:33.585Z,46.03
2018-05-14T07:11:02.179Z,44.53
2018-05-14T07:13:30.796Z,44.10
2018-05-14T07:15:59.385Z,45.20
2018-05-14T07:18:30.020Z,45.21
2018-05-14T07:20:58.610Z,45.00
2018-05-14T07:23:30.473Z,44.52
2018-05-14T07:25:59.060Z,43.42
2018-05-14T07:28:27.731Z,39.64
2018-05-14T07:30:56.324Z,42.68
2018-05-14T07:33:25.862Z,42.82
2018-05-14T07:35:56.323Z,42.61
2018-05-14T07:38:25.266Z,42.45
2018-05-14T07:40:54.172Z,42.71
2018-05-14T07:43:25.511Z,42.74
2018-05-14T07:46:00.789Z,43.02
2018-05-14T07:48:39.499Z,42.45
2018-05-14T07:51:09.022Z,42.19
2018-05-14T07:53:38.851Z,42.12
2018-05-14T07:56:07.449Z,42.62
2018-05-14T07:58:36.412Z,39.03
2018-05-14T08:01:07.668Z,41.11
2018-05-14T08:03:36.284Z,41.18
2018-05-14T08:06:04.872Z,41.03
2018-05-14T08:08:33.497Z,40.63
2018-05-14T08:11:02.092Z,40.98
2018-05-14T08:13:30.713Z,40.91
2018-05-14T08:16:12.333Z,39.82
2018-05-14T08:18:43.121Z,35.71
2018-05-14T08:21:19.166Z,38.24
2018-05-14T08:23:47.835Z,34.33
2018-05-14T08:26:18.568Z,36.66
2018-05-14T08:28:47.438Z,37.57
2018-05-14T08:31:15.901Z,36.58
2018-05-14T08:33:46.584Z,37.70
2018-05-14T08:36:15.172Z,37.78
2018-05-14T08:38:43.808Z,36.82
2018-05-14T08:41:12.397Z,37.92
2018-05-14T08:43:41.018Z,36.13
2018-05-14T08:46:09.620Z,36.71
2018-05-14T08:48:38.913Z,36.64
2018-05-14T08:51:09.134Z,36.21
2018-05-14T08:53:39.752Z,36.40
2018-05-14T08:56:09.991Z,35.93
2018-05-14T08:58:38.610Z,35.75
2018-05-14T09:01:07.207Z,35.42
2018-05-14T09:03:37.326Z,34.39
2018-05-14T09:06:08.174Z,31.33
2018-05-14T09:08:39.527Z,33.82
2018-05-14T09:11:08.123Z,34.48
2018-05-14T09:13:37.955Z,31.17
2018-05-14T09:16:06.954Z,33.95
2018-05-14T09:18:38.276Z,33.62
2018-05-14T09:21:06.995Z,33.70
2018-05-14T09:23:36.386Z,33.83
2018-05-14T09:26:07.146Z,33.01
2018-05-14T09:28:38.461Z,33.12
2018-05-14T09:31:07.161Z,32.96
2018-05-14T09:33:35.723Z,33.11
2018-05-14T09:36:04.346Z,33.31
2018-05-14T09:38:32.937Z,32.77
2018-05-14T09:41:01.566Z,32.41
2018-05-14T09:43:34.050Z,32.19
2018-05-14T09:46:05.011Z,31.88
2018-05-14T09:48:34.096Z,31.61
2018-05-14T09:51:03.206Z,31.25
2018-05-14T09:53:33.057Z,30.91
2018-05-14T09:56:02.078Z,31.97
2018-05-14T09:58:31.075Z,31.83
2018-05-14T10:01:00.022Z,33.00
2018-05-14T10:03:28.649Z,32.44
2018-05-14T10:05:57.281Z,31.98
2018-05-14T10:08:25.870Z,32.15
2018-05-14T10:10:54.500Z,32.87
2018-05-14T10:13:23.105Z,31.42
2018-05-14T10:15:52.929Z,31.19
2018-05-14T10:18:24.530Z,30.02
2018-05-14T10:20:53.156Z,30.39
2018-05-14T10:23:21.916Z,31.36
2018-05-14T10:25:50.812Z,31.14
2018-05-14T10:28:20.028Z,30.63
2018-05-14T10:30:49.407Z,30.60
2018-05-14T10:33:20.092Z,30.55
2018-05-14T10:35:52.719Z,30.17
2018-05-14T10:38:22.081Z,29.82
2018-05-14T10:40:50.746Z,29.11
2018-05-14T10:43:22.003Z,29.63
2018-05-14T10:45:50.641Z,30.56
2018-05-14T10:48:28.172Z,30.33
2018-05-14T10:51:04.339Z,28.50
2018-05-14T10:53:35.117Z,28.39
2018-05-14T10:56:05.331Z,28.38
2018-05-14T10:58:34.069Z,27.55
2018-05-14T11:01:06.669Z,26.45
2018-05-14T11:03:39.909Z,27.22
2018-05-14T11:06:08.544Z,26.98
2018-05-14T11:08:37.141Z,27.00
2018-05-14T11:11:06.659Z,26.18
2018-05-14T11:13:35.251Z,25.76
2018-05-14T11:16:04.135Z,27.05
2018-05-14T11:18:34.560Z,25.63
2018-05-14T11:21:04.394Z,25.93
2018-05-14T11:23:34.777Z,26.88
2018-05-14T11:26:03.396Z,25.44
2018-05-14T11:28:32.044Z,25.85
2018-05-14T11:31:01.167Z,25.66
2018-05-14T11:33:32.097Z,27.08
2018-05-14T11:36:00.695Z,27.11
2018-05-14T11:38:29.316Z,27.25
2018-05-14T11:41:01.191Z,27.90
2018-05-14T11:43:30.521Z,27.77
2018-05-14T11:46:08.447Z,27.32
2018-05-14T11:48:37.248Z,27.02
2018-05-14T11:51:08.279Z,26.36
2018-05-14T11:53:36.879Z,26.71
2018-05-14T11:58:53.209Z,25.94
2018-05-14T12:01:21.868Z,26.11
2018-05-14T12:03:52.890Z,25.59
2018-05-14T12:06:21.788Z,25.00
2018-05-14T12:08:50.430Z,21.12
2018-05-14T12:11:22.515Z,22.50
2018-05-14T12:13:51.238Z,20.84
2018-05-14T12:16:19.827Z,20.49
2018-05-14T12:18:49.705Z,22.70
2018-05-14T12:21:18.823Z,23.58
2018-05-14T12:23:47.448Z,23.54
2018-05-14T12:26:16.071Z,23.48
2018-05-14T12:28:46.016Z,24.35
2018-05-14T12:31:16.897Z,22.22
2018-05-14T12:33:48.323Z,23.70
2018-05-14T12:36:16.924Z,23.89
2018-05-14T12:38:48.180Z,23.28
2018-05-14T12:41:17.831Z,23.48
2018-05-14T12:43:46.456Z,21.60
2018-05-14T12:46:19.438Z,20.58
2018-05-14T12:48:52.637Z,22.38
2018-05-14T12:51:21.253Z,22.48
2018-05-14T12:53:49.866Z,23.01
2018-05-14T12:56:18.463Z,22.74
2018-05-14T12:58:47.080Z,22.58
2018-05-14T13:01:15.971Z,22.25
2018-05-14T13:03:44.544Z,22.08
2018-05-14T13:06:14.194Z,19.87
2018-05-14T13:08:46.106Z,21.33
2018-05-14T13:11:16.156Z,21.38
2018-05-14T13:13:44.841Z,21.32
2018-05-14T13:16:13.438Z,20.74
2018-05-14T13:18:42.058Z,21.21
2018-05-14T13:21:11.799Z,21.37
2018-05-14T13:23:41.307Z,21.12
2018-05-14T13:26:10.111Z,21.16
2018-05-14T13:28:38.843Z,19.60
2018-05-14T13:31:07.795Z,20.75
2018-05-14T13:33:37.024Z,21.53
2018-05-14T13:36:06.276Z,20.93
2018-05-14T13:38:35.427Z,16.76
2018-05-14T13:41:08.342Z,18.79
2018-05-14T13:43:37.298Z,20.06
2018-05-14T13:46:07.513Z,20.16
2018-05-14T13:48:36.480Z,18.68
2018-05-14T13:51:12.468Z,18.63
2018-05-14T13:53:41.067Z,18.49
2018-05-14T13:56:09.911Z,19.16
2018-05-14T13:58:40.978Z,18.88
2018-05-14T14:01:09.628Z,19.49
2018-05-14T14:03:38.295Z,19.44
2018-05-14T14:06:06.855Z,19.69
2018-05-14T14:08:35.471Z,19.90
2018-05-14T14:11:06.550Z,18.35
2018-05-14T14:13:35.143Z,17.70
2018-05-14T14:16:04.904Z,18.04
2018-05-14T14:18:33.497Z,19.51
2018-05-14T14:21:03.195Z,19.25
2018-05-14T14:23:31.887Z,18.50
2018-05-14T14:26:00.412Z,18.69
2018-05-14T14:28:29.029Z,18.26
2018-05-14T14:30:57.666Z,17.53
2018-05-14T14:33:26.280Z,18.39
2018-05-14T14:35:54.962Z,19.20
2018-05-14T14:38:23.496Z,19.67
2018-05-14T14:40:53.466Z,19.55
2018-05-14T14:43:23.368Z,17.91
2018-05-14T14:45:51.987Z,18.62
2018-05-14T14:48:22.148Z,19.41
2018-05-14T14:50:51.187Z,19.89
2018-05-14T14:53:19.811Z,19.58
2018-05-14T14:55:48.427Z,19.72
2018-05-14T14:58:17.057Z,19.48
2018-05-14T15:00:45.653Z,17.90
2018-05-14T15:03:14.306Z,17.14
2018-05-14T15:05:42.983Z,17.34
2018-05-14T15:08:13.721Z,15.27
2018-05-14T15:10:40.209Z,15.67
2018-05-14T15:13:08.800Z,15.74
2018-05-14T15:15:37.448Z,16.58
2018-05-14T15:18:06.086Z,16.64
2018-05-14T15:20:35.329Z,16.99
2018-05-14T15:23:05.031Z,16.00
2018-05-14T15:25:33.675Z,15.46
2018-05-14T15:28:02.265Z,15.83
2018-05-14T15:30:30.905Z,16.39
2018-05-14T15:32:59.543Z,16.07
2018-05-14T15:35:28.191Z,13.35
2018-05-14T15:37:56.825Z,14.57
2018-05-14T15:40:25.418Z,15.50
2018-05-14T15:42:54.046Z,15.96
2018-05-14T15:45:22.642Z,15.52
2018-05-14T15:47:51.263Z,16.15
2018-05-14T15:50:21.027Z,16.24
2018-05-14T15:52:49.733Z,13.70
2018-05-14T15:55:18.345Z,15.01
2018-05-14T15:57:48.188Z,15.59
2018-05-14T16:00:18.832Z,15.90
2018-05-14T16:02:47.457Z,15.74
2018-05-14T16:05:16.090Z,15.09
2018-05-14T16:07:44.828Z,14.65
2018-05-14T16:10:14.837Z,14.97
2018-05-14T16:12:43.726Z,15.34
2018-05-14T16:15:14.794Z,15.46
2018-05-14T16:17:43.506Z,16.33
2018-05-14T16:20:12.049Z,15.91
2018-05-14T16:22:48.192Z,16.35
2018-05-14T16:25:24.475Z,16.87
2018-05-14T16:27:55.518Z,16.40
2018-05-14T16:30:29.536Z,16.32
2018-05-14T16:32:58.217Z,16.24
2018-05-14T16:35:26.823Z,16.48
2018-05-14T16:37:55.554Z,14.45
2018-05-14T16:40:26.289Z,15.06
2018-05-14T16:42:54.911Z,16.68
2018-05-14T16:45:25.998Z,17.13
2018-05-14T16:47:57.314Z,17.24
2018-05-14T16:50:26.072Z,17.26
2018-05-14T16:55:43.379Z,17.09
2018-05-14T16:58:12.087Z,17.32
2018-05-14T17:00:43.982Z,16.85
2018-05-14T17:03:13.784Z,17.63
2018-05-14T17:05:42.374Z,17.14
2018-05-14T17:08:11.026Z,17.58
2018-05-14T17:10:41.227Z,17.47
2018-05-14T17:13:14.045Z,17.00
2018-05-14T17:15:47.584Z,17.46
2018-05-14T17:18:16.215Z,17.98
2018-05-14T17:20:44.902Z,17.95
2018-05-14T17:23:17.733Z,18.12
2018-05-14T17:25:47.376Z,18.26
2018-05-14T17:28:17.578Z,18.59
2018-05-14T17:30:51.546Z,18.85
2018-05-14T17:33:20.676Z,18.92
2018-05-14T17:35:49.872Z,18.89
2018-05-14T17:38:20.057Z,18.71
2018-05-14T17:40:48.929Z,19.08
2018-05-14T17:43:19.984Z,19.65
2018-05-14T17:45:51.630Z,20.23
2018-05-14T17:48:21.848Z,20.27
2018-05-14T17:50:50.460Z,19.97
2018-05-14T17:53:26.335Z,20.25
2018-05-14T17:56:01.499Z,21.68
2018-05-14T17:58:37.972Z,22.48
2018-05-14T18:01:13.192Z,21.17
2018-05-14T18:03:47.307Z,23.87
2018-05-14T18:06:20.613Z,25.23
2018-05-14T18:08:56.070Z,26.41
2018-05-14T18:11:32.698Z,26.88
2018-05-14T18:14:08.124Z,24.94
2018-05-14T18:16:41.882Z,26.93
2018-05-14T18:19:12.148Z,27.77
2018-05-14T18:21:41.941Z,28.00
2018-05-14T18:24:12.876Z,28.55
2018-05-14T18:26:50.705Z,28.98
2018-05-14T18:29:33.950Z,29.44
2018-05-14T18:32:05.310Z,29.50
2018-05-14T18:34:39.782Z,30.59
2018-05-14T18:37:08.422Z,31.10
2018-05-14T18:39:37.042Z,31.41
2018-05-14T18:42:05.958Z,31.50
2018-05-14T18:44:36.586Z,31.57
2018-05-14T18:47:05.195Z,31.89
2018-05-14T18:49:33.850Z,32.35
2018-05-14T18:52:02.483Z,32.69
2018-05-14T18:54:31.629Z,32.86
2018-05-14T18:57:12.286Z,33.09
2018-05-14T18:59:43.718Z,33.27
2018-05-14T19:02:16.361Z,33.36
2018-05-14T19:04:45.007Z,33.59
2018-05-14T19:07:13.647Z,33.67
2018-05-14T19:09:42.615Z,33.77
2018-05-14T19:12:11.261Z,34.90
2018-05-14T19:14:42.033Z,34.74
2018-05-14T19:17:35.795Z,35.62
2018-05-14T19:20:04.506Z,35.65
2018-05-14T19:22:42.229Z,35.53
2018-05-14T19:25:11.095Z,35.17
2018-05-14T19:27:39.950Z,35.97
2018-05-14T19:30:08.902Z,36.63
2018-05-14T19:32:37.574Z,36.86
2018-05-14T19:35:24.602Z,36.95
2018-05-14T19:37:53.395Z,36.34
2018-05-14T19:40:40.375Z,37.58
2018-05-14T19:43:09.095Z,37.71
2018-05-14T19:45:38.728Z,37.75
2018-05-14T19:48:07.514Z,38.50
2018-05-14T19:50:36.278Z,39.05
2018-05-14T19:53:04.821Z,38.54
2018-05-14T19:55:33.514Z,39.67
2018-05-14T19:58:02.241Z,39.75
2018-05-14T20:00:30.829Z,39.54
2018-05-14T20:02:59.464Z,39.78
2018-05-14T20:05:28.105Z,40.16
2018-05-14T20:07:56.757Z,39.79
2018-05-14T20:10:25.420Z,40.24
2018-05-14T20:12:54.280Z,40.36
2018-05-14T20:15:31.458Z,40.46
2018-05-14T20:18:00.288Z,40.89
2018-05-14T20:20:29.600Z,41.63
2018-05-14T20:22:58.730Z,41.53
2018-05-14T20:25:27.196Z,41.54
2018-05-14T20:27:56.102Z,42.26
2018-05-14T20:30:24.721Z,42.65
2018-05-14T20:32:53.427Z,42.93
2018-05-14T20:35:22.068Z,43.03
2018-05-14T20:37:51.032Z,43.89
2018-05-14T20:40:19.583Z,44.03
2018-05-14T20:42:54.709Z,44.02
2018-05-14T20:45:25.458Z,44.16
2018-05-14T20:47:54.329Z,43.08
2018-05-14T20:50:24.467Z,44.76
2018-05-14T20:52:56.417Z,45.07
2018-05-14T20:55:29.042Z,45.00
2018-05-14T20:58:01.055Z,45.21
2018-05-14T21:00:29.950Z,46.82
2018-05-14T21:02:58.514Z,47.36
2018-05-14T21:05:27.715Z,47.26
2018-05-14T21:07:59.247Z,47.29
2018-05-14T21:10:28.180Z,48.23
2018-05-14T21:12:56.973Z,47.64
2018-05-14T21:15:25.642Z,48.01
2018-05-14T21:17:54.462Z,48.89
2018-05-14T21:20:23.079Z,48.92
2018-05-14T21:22:51.729Z,47.25
2018-05-14T21:25:20.346Z,48.64
2018-05-14T21:27:51.894Z,49.18
2018-05-14T21:30:20.531Z,49.66
2018-05-14T21:32:50.221Z,49.49
2018-05-14T21:35:19.799Z,49.87
2018-05-14T21:37:48.763Z,50.36
2018-05-14T21:40:17.628Z,51.76
2018-05-14T21:42:47.516Z,50.16
2018-05-14T21:45:16.268Z,51.39
2018-05-14T21:47:44.872Z,52.47
2018-05-14T21:50:13.515Z,52.99
2018-05-14T21:52:42.344Z,52.96
2018-05-14T21:55:11.897Z,52.96
2018-05-14T21:57:42.994Z,52.38
2018-05-14T22:00:13.991Z,52.42
2018-05-14T22:02:43.046Z,51.63
2018-05-14T22:05:13.540Z,51.40
2018-05-14T22:07:43.913Z,50.48
2018-05-14T22:10:14.624Z,50.97
2018-05-14T22:12:44.767Z,50.39
2018-05-14T22:15:17.469Z,51.01
2018-05-14T22:17:55.609Z,50.45
2018-05-14T22:20:24.254Z,50.36
2018-05-14T22:22:52.954Z,50.33
2018-05-14T22:25:21.649Z,51.80
2018-05-14T22:27:50.220Z,51.14
2018-05-14T22:30:19.621Z,51.85
2018-05-14T22:32:49.117Z,52.73
2018-05-14T22:35:17.785Z,52.01
2018-05-14T22:37:47.696Z,52.82
2018-05-14T22:40:16.381Z,53.03
2018-05-14T22:42:45.904Z,52.57
2018-05-14T22:45:15.907Z,52.46
2018-05-14T22:47:44.597Z,51.09
2018-05-14T22:50:13.316Z,52.12
2018-05-14T22:52:42.268Z,52.21
2018-05-14T22:55:15.613Z,52.34
2018-05-14T22:57:44.411Z,52.24
2018-05-14T23:00:24.680Z,53.03
2018-05-14T23:02:53.033Z,51.53
2018-05-14T23:05:21.716Z,52.97
2018-05-14T23:07:50.427Z,53.38
2018-05-14T23:10:19.231Z,53.58
2018-05-14T23:12:48.053Z,53.90
2018-05-14T23:15:17.080Z,54.02
2018-05-14T23:17:45.706Z,53.34
2018-05-14T23:20:14.345Z,53.55
2018-05-14T23:22:42.964Z,53.06
2018-05-14T23:25:11.605Z,53.05
2018-05-14T23:27:40.225Z,52.96
2018-05-14T23:30:08.885Z,52.62
2018-05-14T23:32:37.507Z,52.93
2018-05-14T23:35:06.402Z,53.12
2018-05-14T23:37:35.037Z,52.91
2018-05-14T23:40:03.678Z,52.88
2018-05-14T23:42:32.306Z,52.70
2018-05-14T23:45:00.938Z,52.95
2018-05-14T23:47:29.639Z,53.10
2018-05-14T23:49:58.234Z,53.02
2018-05-14T23:52:26.886Z,53.53
2018-05-14T23:54:56.245Z,53.96
2018-05-14T23:57:25.412Z,54.24
2018-05-14T23:59:54.216Z,54.57
